Flight Track Log - Related Links

Times and Time Zones

All times are in EDT time to prevent confusion due to time zone crossing. See the ANT535 flight status page for this flight to view local times or setup timezone preferences in your user account.

Time Position Orientation Groundspeed Altitude Reporting Facility
EDT Latitude Longitude Course Direction KTS MPH feet Rate Location/Type
Wed 08:59:00 PM 60.0796 -134.0607 141° Southeast  Level FlightAware Approximate
Wed 09:00:00 PM 59.9890 -133.9200 142° Southeast  Level FlightAware Approximate
Wed 09:01:00 PM 59.8983 -133.7802 142° Southeast  Level FlightAware Approximate
Wed 09:02:00 PM 59.8074 -133.6410 142° Southeast  Level FlightAware Approximate
Wed 09:03:00 PM 59.7163 -133.5027 143° Southeast  Level FlightAware Approximate
Wed 09:04:00 PM 59.6251 -133.3651 143° Southeast  Level FlightAware Approximate
Wed 09:05:00 PM 59.5338 -133.2282 143° Southeast  Level FlightAware Approximate
Wed 09:06:00 PM 59.4423 -133.0921 143° Southeast  Level FlightAware Approximate
Wed 09:07:00 PM 59.3507 -132.9567 143° Southeast  Level FlightAware Approximate
Wed 09:08:00 PM 59.2549 -132.8332 143° Southeast  Level Estimated
Wed 09:09:00 PM 59.1635 -132.6981 143° Southeast  Level FlightAware Approximate
Wed 09:10:00 PM 59.0719 -132.5637 143° Southeast  Level FlightAware Approximate
Wed 09:11:00 PM 58.9801 -132.4301 143° Southeast  Level FlightAware Approximate
Wed 09:12:00 PM 58.8883 -132.2971 143° Southeast  Level FlightAware Approximate
Wed 09:13:00 PM 58.7963 -132.1649 143° Southeast  Level FlightAware Approximate
Wed 09:14:00 PM 58.7042 -132.0334 143° Southeast  Level FlightAware Approximate
Wed 09:15:00 PM 58.6119 -131.9025 144° Southeast  Level FlightAware Approximate
Wed 09:16:00 PM 58.5195 -131.7724 144° Southeast  Level FlightAware Approximate
Wed 09:17:00 PM 58.4270 -131.6429 144° Southeast  Level FlightAware Approximate
Wed 09:18:00 PM 58.3343 -131.5141 144° Southeast  Level FlightAware Approximate
Wed 09:19:00 PM 58.2415 -131.3860 144° Southeast  Level FlightAware Approximate
Wed 09:20:00 PM 58.1486 -131.2585 144° Southeast  Level FlightAware Approximate
Wed 09:21:00 PM 58.0556 -131.1318 144° Southeast  Level FlightAware Approximate
Wed 09:22:00 PM 57.9624 -131.0056 144° Southeast  Level FlightAware Approximate
Wed 09:23:00 PM 57.8691 -130.8802 144° Southeast  Level FlightAware Approximate
Wed 09:24:00 PM 57.7757 -130.7553 145° Southeast  Level FlightAware Approximate
Wed 09:25:00 PM 57.6822 -130.6312 145° Southeast  Level FlightAware Approximate
Wed 09:26:00 PM 57.5835 -130.5221 144° Southeast  Level Estimated
Wed 09:27:00 PM 57.4915 -130.3945 143° Southeast  Level FlightAware Approximate
Wed 09:28:00 PM 57.3994 -130.2676 143° Southeast  Level FlightAware Approximate
Wed 09:29:00 PM 57.3072 -130.1413 143° Southeast  Level FlightAware Approximate
Wed 09:29:19 PM 57.0167 -129.8000 144° Southeast 490 564 33,000  Level Vancouver Center
Wed 09:30:00 PM 57.2149 -130.0156 144° Southeast  Level FlightAware Approximate
Wed 09:30:19 PM 56.9167 -129.6500 141° Southeast 490 564 33,000  Level Vancouver Center
Wed 09:31:00 PM 57.1224 -129.8906 144° Southeast  Level FlightAware Approximate
Wed 09:31:19 PM 56.8000 -129.5167 148° Southeast 490 564 33,000  Level Vancouver Center
Wed 09:32:00 PM 57.0299 -129.7661 144° Southeast  Level FlightAware Approximate
Wed 09:32:19 PM 56.6833 -129.3833 148° Southeast 490 564 33,000  Level Vancouver Center
Wed 09:33:00 PM 56.9372 -129.6423 144° Southeast  Level FlightAware Approximate
Wed 09:33:19 PM 56.5667 -129.2667 151° Southeast 500 575 33,000  Level Vancouver Center
Wed 09:34:00 PM 56.8443 -129.5191 144° Southeast  Level FlightAware Approximate
Wed 09:34:19 PM 56.4333 -129.1333 151° Southeast 500 575 33,000  Level Vancouver Center
Wed 09:35:19 PM 56.3000 -129.0167 154° Southeast 480 552 33,000  Level Vancouver Center
Wed 09:36:19 PM 56.1833 -128.9167 154° Southeast 520 598 33,000  Level Vancouver Center
Wed 09:37:19 PM 56.0667 -128.7833 147° Southeast 480 552 33,000  Level Vancouver Center
Wed 09:38:19 PM 55.9333 -128.6833 157° South 510 587 33,000  Level Vancouver Center
Wed 09:39:19 PM 55.8167 -128.5500 147° Southeast 500 575 33,000  Level Vancouver Center
Wed 09:40:19 PM 55.7000 -128.4333 151° Southeast 510 587 33,000  Level Vancouver Center
Wed 09:41:19 PM 55.5667 -128.3333 157° South 510 587 33,000  Level Vancouver Center
Wed 09:42:19 PM 55.4333 -128.2000 150° Southeast 500 575 33,000  Level Vancouver Center
Wed 09:43:19 PM 55.3000 -128.1000 157° South 510 587 33,000  Level Vancouver Center
Wed 09:44:19 PM 55.2000 -128.0000 150° Southeast 500 575 33,000  Level Vancouver Center
Wed 09:45:19 PM 55.0667 -127.8667 150° Southeast 500 575 33,000  Level Vancouver Center
Wed 09:46:19 PM 54.9500 -127.7833 158° South 500 575 33,000  Level Vancouver Center
Wed 09:47:19 PM 54.8167 -127.6833 157° South 500 575 33,000  Level Vancouver Center
Wed 09:48:19 PM 54.6833 -127.5500 150° Southeast 490 564 33,000  Level Vancouver Center
Wed 09:49:19 PM 54.5667 -127.4500 154° Southeast 500 575 33,000  Level Vancouver Center
Wed 09:50:19 PM 54.4500 -127.3333 150° Southeast 510 587 33,000  Level Vancouver Center
Wed 09:51:19 PM 54.3333 -127.2333 153° Southeast 500 575 33,000  Level Vancouver Center
Wed 09:52:19 PM 54.1833 -127.1333 159° South 500 575 33,000  Level Vancouver Center
Wed 09:53:19 PM 54.0667 -127.0167 150° Southeast 500 575 33,000  Level Vancouver Center
Wed 09:54:19 PM 53.9333 -126.9167 156° South 510 587 33,000  Level Vancouver Center
Wed 09:55:19 PM 53.8333 -126.8167 149° Southeast 510 587 33,000  Level Vancouver Center
Wed 09:56:19 PM 53.7000 -126.7000 153° Southeast 500 575 33,000  Level Vancouver Center
Wed 09:57:19 PM 53.5667 -126.6000 156° South 500 575 33,000  Level Vancouver Center
Wed 09:58:19 PM 53.4500 -126.5167 157° South 500 575 33,000  Level Vancouver Center
Wed 09:59:19 PM 53.3167 -126.4000 152° Southeast 500 575 33,000  Level Vancouver Center
Wed 10:00:19 PM 53.1833 -126.3000 156° South 510 587 33,000  Level Vancouver Center
Wed 10:01:19 PM 53.0500 -126.1833 152° Southeast 500 575 33,000  Level Vancouver Center
Wed 10:02:19 PM 52.9333 -126.1000 157° South 500 575 33,000  Level Vancouver Center
Wed 10:03:19 PM 52.8000 -126.0000 156° South 510 587 33,000  Level Vancouver Center
Wed 10:04:19 PM 52.6833 -125.8833 149° Southeast 510 587 33,000  Level Vancouver Center
Wed 10:05:19 PM 52.5500 -125.8000 159° South 510 587 33,000  Level Vancouver Center
Wed 10:06:19 PM 52.4333 -125.7167 156° South 500 575 33,000  Level Vancouver Center
Wed 10:07:19 PM 52.3000 -125.6000 152° Southeast 510 587 33,000  Level Vancouver Center
Wed 10:08:19 PM 52.1667 -125.5167 159° South 500 575 33,000  Level Vancouver Center
Wed 10:09:19 PM 52.0500 -125.4000 148° Southeast 500 575 33,000  Level Vancouver Center
Wed 10:10:19 PM 51.9167 -125.3167 159° South 500 575 33,000  Level Vancouver Center
Wed 10:11:19 PM 51.7833 -125.2333 159° South 500 575 33,000  Level Vancouver Center
Wed 10:12:19 PM 51.6667 -125.1167 148° Southeast 500 575 33,000  Level Vancouver Center
Wed 10:13:19 PM 51.5333 -125.0333 159° South 500 575 33,000  Level Vancouver Center
Wed 10:14:19 PM 51.4000 -124.9500 159° South 500 575 33,000  Level Vancouver Center
Wed 10:15:19 PM 51.2833 -124.8333 148° Southeast 500 575 33,000  Level Vancouver Center
Wed 10:16:19 PM 51.1500 -124.7500 159° South 500 575 33,000  Level Vancouver Center
Wed 10:17:19 PM 51.0167 -124.6667 159° South 500 575 33,000  Level Vancouver Center
Wed 10:18:19 PM 50.9000 -124.6000 160° South 500 575 33,000  Level Vancouver Center
Wed 10:19:19 PM 50.7667 -124.4833 151° Southeast 500 575 33,000  Level Vancouver Center
Wed 10:20:19 PM 50.6500 -124.4000 156° South 500 575 33,000  Level Vancouver Center
Wed 10:21:19 PM 50.5167 -124.3000 154° Southeast 500 575 33,000  Level Vancouver Center
Wed 10:22:19 PM 50.3833 -124.2167 158° South 500 575 33,000 -150 Level Vancouver Center
Wed 10:23:19 PM 50.2667 -124.1167 151° Southeast 500 575 32,700 -2,200 Descending Vancouver Center
Wed 10:24:19 PM 50.1333 -124.0000 151° Southeast 500 575 28,600 -3,950 Descending Vancouver Center
Wed 10:25:19 PM 50.0167 -123.9000 151° Southeast 510 587 24,800 -3,550 Descending Vancouver Center
Wed 10:26:19 PM 49.8833 -123.8000 154° Southeast 500 575 21,500 -3,050 Descending Vancouver Center
Wed 10:27:19 PM 49.7667 -123.7167 155° Southeast 480 552 18,700 -2,800 Descending Vancouver Center
Wed 10:28:19 PM 49.6667 -123.6167 147° Southeast 450 518 15,900 -2,500 Descending Vancouver Center
Wed 10:29:19 PM 49.5500 -123.5500 160° South 430 495 13,700 -1,800 Descending Vancouver Center
Wed 10:30:19 PM 49.4500 -123.4667 152° Southeast 420 483 12,300 -1,400 Descending Vancouver Center
Wed 10:31:19 PM 49.3500 -123.3667 147° Southeast 400 460 10,900 -1,200 Descending Vancouver Center
Wed 10:32:19 PM 49.2667 -123.2833 147° Southeast 380 437 9,900 -750 Descending Vancouver Center
Wed 10:33:19 PM 49.2500 -123.1667 102° East 310 357 9,400 -1,300 Descending Vancouver Center
Wed 10:34:19 PM 49.2333 -123.0333 101° East 290 334 7,300 -1,950 Descending Vancouver Center
Wed 10:35:19 PM 49.2167 -122.9333 104° East 270 311 5,500 -1,850 Descending Vancouver Center
Wed 10:36:19 PM 49.2000 -122.8333 104° East 260 299 3,600 -1,300 Descending Vancouver Center
Wed 10:37:19 PM 49.1500 -122.9000 221° Southwest 230 265 2,900 -700 Descending Vancouver Center
Wed 10:38:19 PM 49.1667 -122.9833 287° West 200 230 2,200 -750 Descending Vancouver Center
Wed 10:39:19 PM 49.1667 -123.0667 270° West 160 184 1,400 -750 Descending Vancouver Center
Wed 10:40:19 PM 49.1667 -123.1167 270° West 130 150 700 -700 Descending Vancouver Center

Login

Don't have an account? Register now (free) for customized features, flight alerts, and more!